createdAt,value
2019-04-07T00:01:25.151Z,3.07
2019-04-07T00:03:55.911Z,5.80
2019-04-07T00:06:26.774Z,3.40
2019-04-07T00:08:57.291Z,3.23
2019-04-07T00:11:28.251Z,4.13
2019-04-07T00:13:58.977Z,3.77
2019-04-07T00:16:31.011Z,5.17
2019-04-07T00:19:01.974Z,3.43
2019-04-07T00:21:33.135Z,3.87
2019-04-07T00:24:03.659Z,4.20
2019-04-07T00:26:34.137Z,3.50
2019-04-07T00:29:04.866Z,4.90
2019-04-07T00:31:35.339Z,4.23
2019-04-07T00:34:05.941Z,3.63
2019-04-07T00:36:36.425Z,5.50
2019-04-07T00:39:09.402Z,3.50
2019-04-07T00:41:40.294Z,3.50
2019-04-07T00:44:11.448Z,3.50
2019-04-07T00:46:43.244Z,4.03
2019-04-07T00:49:13.631Z,4.80
2019-04-07T00:51:44.743Z,3.77
2019-04-07T00:54:15.311Z,3.80
2019-04-07T00:56:45.795Z,4.17
2019-04-07T00:59:16.641Z,3.63
2019-04-07T01:01:47.194Z,4.33
2019-04-07T01:04:18.910Z,3.73
2019-04-07T01:06:49.929Z,3.73
2019-04-07T01:09:20.479Z,5.00
2019-04-07T01:11:52.262Z,6.27
2019-04-07T01:14:22.761Z,4.50
2019-04-07T01:16:53.603Z,3.57
2019-04-07T01:19:24.376Z,6.50
2019-04-07T01:21:54.930Z,6.40
2019-04-07T01:24:25.407Z,4.47
2019-04-07T01:26:56.127Z,5.40
2019-04-07T01:29:26.731Z,5.50
2019-04-07T01:31:57.334Z,3.33
2019-04-07T01:34:28.204Z,4.03
2019-04-07T01:36:59.843Z,4.17
2019-04-07T01:39:32.171Z,4.53
2019-04-07T01:42:14.866Z,3.40
2019-04-07T01:45:04.298Z,3.63
2019-04-07T01:47:56.860Z,3.27
2019-04-07T01:50:38.481Z,3.63
2019-04-07T01:53:30.701Z,3.57
2019-04-07T01:56:26.387Z,3.67
2019-04-07T01:59:15.831Z,3.00
2019-04-07T02:01:59.398Z,3.63
2019-04-07T02:04:47.150Z,3.70
2019-04-07T02:07:37.498Z,3.27
2019-04-07T02:10:20.940Z,3.60
2019-04-07T02:13:08.871Z,3.60
2019-04-07T02:15:56.910Z,4.23
2019-04-07T02:18:38.851Z,3.30
2019-04-07T02:21:23.774Z,3.90
2019-04-07T02:24:11.459Z,3.70
2019-04-07T02:26:52.277Z,3.17
2019-04-07T02:29:45.049Z,3.60
2019-04-07T02:32:52.517Z,4.23
2019-04-07T02:35:37.929Z,4.97
2019-04-07T02:38:30.370Z,3.67
2019-04-07T02:41:12.455Z,3.67
2019-04-07T02:43:50.556Z,3.63
2019-04-07T02:46:40.784Z,3.90
2019-04-07T02:49:29.052Z,4.33
2019-04-07T02:52:12.730Z,3.57
2019-04-07T02:55:02.635Z,4.50
2019-04-07T02:57:56.025Z,3.73
2019-04-07T03:00:54.496Z,3.40
2019-04-07T03:03:43.938Z,4.23
2019-04-07T03:06:39.342Z,8.30
2019-04-07T03:09:34.783Z,3.73
2019-04-07T03:12:23.441Z,3.70
2019-04-07T03:15:19.403Z,6.47
2019-04-07T03:17:57.305Z,3.70
2019-04-07T03:20:57.388Z,3.80
2019-04-07T03:23:49.801Z,3.97
2019-04-07T03:26:57.875Z,4.27
2019-04-07T03:29:41.743Z,4.37
2019-04-07T03:32:48.924Z,4.37
2019-04-07T03:35:46.171Z,3.53
2019-04-07T03:38:44.315Z,3.60
2019-04-07T03:41:33.757Z,3.20
2019-04-07T03:44:09.879Z,3.77
2019-04-07T03:47:02.115Z,4.47
2019-04-07T03:49:39.666Z,3.97
2019-04-07T03:52:22.964Z,4.50
2019-04-07T03:55:28.247Z,3.40
2019-04-07T03:58:16.043Z,4.03
2019-04-07T04:01:30.648Z,4.57
2019-04-07T04:04:27.476Z,3.73
2019-04-07T04:07:26.602Z,3.60
2019-04-07T04:10:08.368Z,4.10
2019-04-07T04:13:01.015Z,4.30
2019-04-07T04:15:51.558Z,3.63
2019-04-07T04:18:23.458Z,3.67
2019-04-07T04:20:54.267Z,6.13
2019-04-07T04:23:25.017Z,5.77
2019-04-07T04:25:56.703Z,4.33
2019-04-07T04:28:27.431Z,4.90
2019-04-07T04:30:58.020Z,4.10
2019-04-07T04:33:29.544Z,4.17
2019-04-07T04:36:00.564Z,4.53
2019-04-07T04:38:31.817Z,4.00
2019-04-07T04:41:02.923Z,6.60
2019-04-07T04:43:34.041Z,3.80
2019-04-07T04:46:08.692Z,3.83
2019-04-07T04:48:38.798Z,4.70
2019-04-07T04:51:09.715Z,4.23
2019-04-07T04:53:40.317Z,8.23
2019-04-07T04:56:10.982Z,5.00
2019-04-07T04:58:42.401Z,3.90
2019-04-07T05:01:13.395Z,4.03
2019-04-07T05:03:44.479Z,3.90
2019-04-07T05:06:15.318Z,4.00
2019-04-07T05:08:46.871Z,3.80
2019-04-07T05:11:17.482Z,4.10
2019-04-07T05:13:48.094Z,4.17
2019-04-07T05:16:19.730Z,4.77
2019-04-07T05:18:50.727Z,4.60
2019-04-07T05:21:22.408Z,4.37
2019-04-07T05:23:53.008Z,6.23
2019-04-07T05:26:24.039Z,7.00
2019-04-07T05:28:55.033Z,4.23
2019-04-07T05:31:25.842Z,10.67
2019-04-07T05:33:56.562Z,4.73
2019-04-07T05:36:26.974Z,6.27
2019-04-07T05:38:57.695Z,7.43
2019-04-07T05:41:28.447Z,5.23
2019-04-07T05:43:58.896Z,5.67
2019-04-07T05:46:30.234Z,4.83
2019-04-07T05:49:00.943Z,5.10
2019-04-07T05:51:31.426Z,4.67
2019-04-07T05:54:02.474Z,5.23
2019-04-07T05:56:33.150Z,4.93
2019-04-07T05:59:03.469Z,5.10
2019-04-07T06:01:34.521Z,6.63
2019-04-07T06:04:05.630Z,4.33
2019-04-07T06:06:37.037Z,4.37
2019-04-07T06:09:09.418Z,4.77
2019-04-07T06:11:40.794Z,5.10
2019-04-07T06:14:14.323Z,7.63
2019-04-07T06:16:45.169Z,4.80
2019-04-07T06:19:16.074Z,5.93
2019-04-07T06:21:48.729Z,4.47
2019-04-07T06:24:21.823Z,5.07
2019-04-07T06:26:51.120Z,5.23
2019-04-07T06:29:24.699Z,5.53
2019-04-07T06:31:53.942Z,5.30
2019-04-07T06:34:24.957Z,4.87
2019-04-07T06:36:56.293Z,5.53
2019-04-07T06:39:27.607Z,4.70
2019-04-07T06:42:00.391Z,5.50
2019-04-07T06:44:30.557Z,6.67
2019-04-07T06:47:25.997Z,6.13
2019-04-07T06:53:15.761Z,5.27
2019-04-07T06:55:53.945Z,5.63
2019-04-07T06:58:43.835Z,7.10
2019-04-07T07:01:29.661Z,5.20
2019-04-07T07:04:16.627Z,5.53
2019-04-07T07:06:57.865Z,5.80
2019-04-07T07:09:35.911Z,5.70
2019-04-07T07:12:41.231Z,6.47
2019-04-07T07:15:26.772Z,5.73
2019-04-07T07:18:15.423Z,5.47
2019-04-07T07:21:12.055Z,5.90
2019-04-07T07:23:47.679Z,5.30
2019-04-07T07:26:15.965Z,6.43
2019-04-07T07:28:46.961Z,6.43
2019-04-07T07:31:18.172Z,7.53
2019-04-07T07:34:10.658Z,7.00
2019-04-07T07:36:41.726Z,6.13
2019-04-07T07:39:13.861Z,5.70
2019-04-07T07:41:45.651Z,6.67
2019-04-07T07:44:16.716Z,6.33
2019-04-07T07:46:49.140Z,6.30
2019-04-07T07:49:19.483Z,5.70
2019-04-07T07:51:51.741Z,6.17
2019-04-07T07:54:23.038Z,7.70
2019-04-07T07:56:54.073Z,5.80
2019-04-07T07:59:24.994Z,5.83
2019-04-07T08:01:56.258Z,5.93
2019-04-07T08:04:27.683Z,7.90
2019-04-07T08:06:58.984Z,5.50
2019-04-07T08:09:30.638Z,7.57
2019-04-07T08:12:03.475Z,8.60
2019-04-07T08:14:34.936Z,5.80
2019-04-07T08:17:07.268Z,8.50
2019-04-07T08:19:42.194Z,8.47
2019-04-07T08:22:11.652Z,5.70
2019-04-07T08:24:42.719Z,5.50
2019-04-07T08:27:13.954Z,6.40
2019-04-07T08:29:45.145Z,8.40
2019-04-07T08:32:16.490Z,6.37
2019-04-07T08:34:47.225Z,6.13
2019-04-07T08:37:19.082Z,6.30
2019-04-07T08:39:49.717Z,7.33
2019-04-07T08:42:20.783Z,6.00
2019-04-07T08:44:51.965Z,25.23
2019-04-07T08:47:23.448Z,9.03
2019-04-07T08:49:56.849Z,5.37
2019-04-07T08:52:27.222Z,5.70
2019-04-07T08:54:59.356Z,6.00
2019-04-07T08:57:32.102Z,11.53
2019-04-07T09:00:02.477Z,5.70
2019-04-07T09:02:33.563Z,5.90
2019-04-07T09:05:04.526Z,9.90
2019-04-07T09:07:36.801Z,5.70
2019-04-07T09:10:08.249Z,6.10
2019-04-07T09:12:39.443Z,6.90
2019-04-07T09:15:13.076Z,5.90
2019-04-07T09:17:48.667Z,5.43
2019-04-07T09:20:48.122Z,5.00
2019-04-07T09:23:29.487Z,5.83
2019-04-07T09:26:10.069Z,5.17
2019-04-07T09:29:06.440Z,5.73
2019-04-07T09:31:57.694Z,6.60
2019-04-07T09:34:53.969Z,5.80
2019-04-07T09:37:43.353Z,5.33
2019-04-07T09:40:31.853Z,6.57
2019-04-07T09:43:24.854Z,6.80
2019-04-07T09:46:26.458Z,5.90
2019-04-07T09:49:21.234Z,6.67
2019-04-07T09:52:11.782Z,8.77
2019-04-07T09:55:01.907Z,6.70
2019-04-07T09:58:11.568Z,5.80
2019-04-07T10:00:59.672Z,6.93
2019-04-07T10:03:40.309Z,7.67
2019-04-07T10:06:29.511Z,7.37
2019-04-07T10:09:11.331Z,7.97
2019-04-07T10:12:00.598Z,8.03
2019-04-07T10:14:48.829Z,9.00
2019-04-07T10:17:43.829Z,9.20
2019-04-07T10:20:49.165Z,9.90
2019-04-07T10:23:49.298Z,9.40
2019-04-07T10:26:27.119Z,10.67
2019-04-07T10:29:09.787Z,9.07
2019-04-07T10:32:02.461Z,11.57
2019-04-07T10:35:10.323Z,10.97
2019-04-07T10:38:03.940Z,15.13
2019-04-07T10:40:43.854Z,10.13
2019-04-07T10:43:36.398Z,9.57
2019-04-07T10:46:24.494Z,10.57
2019-04-07T10:49:05.764Z,12.10
2019-04-07T10:51:54.253Z,16.83
2019-04-07T10:54:35.415Z,12.67
2019-04-07T10:57:30.497Z,16.17
2019-04-07T11:00:24.052Z,14.63
2019-04-07T11:03:32.924Z,14.97
2019-04-07T11:06:34.823Z,14.80
2019-04-07T11:09:37.829Z,21.20
2019-04-07T11:12:33.147Z,17.57
2019-04-07T11:15:27.060Z,16.57
2019-04-07T11:18:19.468Z,13.20
2019-04-07T11:20:55.840Z,18.20
2019-04-07T11:23:45.241Z,16.00
2019-04-07T11:26:35.299Z,21.47
2019-04-07T11:29:12.273Z,21.63
2019-04-07T11:32:04.474Z,20.70
2019-04-07T11:35:00.755Z,20.90
2019-04-07T11:37:47.341Z,19.00
2019-04-07T11:40:41.487Z,20.23
2019-04-07T11:43:09.039Z,20.53
2019-04-07T11:45:58.344Z,22.00
2019-04-07T11:48:40.476Z,23.43
2019-04-07T11:51:22.713Z,20.53
2019-04-07T11:54:10.501Z,21.00
2019-04-07T11:56:47.566Z,23.27
2019-04-07T11:59:46.164Z,22.07
2019-04-07T12:02:34.608Z,20.47
2019-04-07T12:05:17.450Z,19.60
2019-04-07T12:08:13.920Z,24.17
2019-04-07T12:11:04.770Z,23.47
2019-04-07T12:13:52.533Z,23.87
2019-04-07T12:16:41.253Z,20.30
2019-04-07T12:19:22.716Z,21.67
2019-04-07T12:22:05.545Z,21.90
2019-04-07T12:24:57.491Z,24.27
2019-04-07T12:27:48.183Z,26.50
2019-04-07T12:30:26.507Z,18.03
2019-04-07T12:33:07.933Z,16.63
2019-04-07T12:35:44.843Z,13.87
2019-04-07T12:38:43.201Z,18.83
2019-04-07T12:41:39.104Z,17.43
2019-04-07T12:44:27.914Z,15.10
2019-04-07T12:47:23.844Z,13.77
2019-04-07T12:53:03.460Z,14.57
2019-04-07T12:55:57.572Z,13.83
2019-04-07T12:58:51.650Z,16.57
2019-04-07T13:01:49.220Z,15.17
2019-04-07T13:04:36.390Z,13.67
2019-04-07T13:07:38.631Z,16.00
2019-04-07T13:10:25.321Z,14.50
2019-04-07T13:13:05.124Z,14.40
2019-04-07T13:15:47.473Z,17.03
2019-04-07T13:18:26.396Z,17.00
2019-04-07T13:21:24.769Z,12.33
2019-04-07T13:24:18.037Z,12.80
2019-04-07T13:27:07.057Z,11.40
2019-04-07T13:30:02.988Z,11.17
2019-04-07T13:33:20.397Z,10.00
2019-04-07T13:36:06.087Z,9.97
2019-04-07T13:38:43.043Z,9.30
2019-04-07T13:41:40.822Z,9.17
2019-04-07T13:44:26.110Z,8.40
2019-04-07T13:47:22.106Z,8.70
2019-04-07T13:52:59.108Z,9.77
2019-04-07T13:55:46.429Z,9.37
2019-04-07T13:58:35.767Z,9.40
2019-04-07T14:01:19.322Z,10.13
2019-04-07T14:04:21.722Z,9.70
2019-04-07T14:07:11.875Z,10.13
2019-04-07T14:10:20.113Z,10.43
2019-04-07T14:13:07.326Z,9.63
2019-04-07T14:16:01.599Z,9.70
2019-04-07T14:18:44.985Z,11.80
2019-04-07T14:21:39.670Z,10.50
2019-04-07T14:24:25.683Z,10.90
2019-04-07T14:27:21.997Z,14.23
2019-04-07T14:30:02.724Z,10.80
2019-04-07T14:32:52.448Z,12.80
2019-04-07T14:35:45.333Z,13.10
2019-04-07T14:38:35.574Z,15.10
2019-04-07T14:41:18.372Z,13.23
2019-04-07T14:44:03.022Z,11.80
2019-04-07T14:47:01.451Z,13.90
2019-04-07T14:49:57.254Z,17.50
2019-04-07T14:52:56.750Z,13.73
2019-04-07T14:55:41.136Z,15.30
2019-04-07T14:58:38.419Z,14.80
2019-04-07T15:01:39.986Z,15.60
2019-04-07T15:04:10.839Z,13.20
2019-04-07T15:06:42.265Z,12.63
2019-04-07T15:09:22.449Z,17.23
2019-04-07T15:12:23.041Z,14.00
2019-04-07T15:14:50.307Z,16.63
2019-04-07T15:17:20.982Z,13.27
2019-04-07T15:19:52.445Z,12.40
2019-04-07T15:22:28.495Z,13.03
2019-04-07T15:24:55.914Z,14.17
2019-04-07T15:27:27.220Z,15.67
2019-04-07T15:29:58.863Z,12.67
2019-04-07T15:32:30.124Z,14.10
2019-04-07T15:35:02.326Z,14.23
2019-04-07T15:37:34.690Z,16.20
2019-04-07T15:40:07.259Z,12.30
2019-04-07T15:42:44.130Z,12.63
2019-04-07T15:45:12.495Z,20.30
2019-04-07T15:47:44.685Z,11.53
2019-04-07T15:50:20.443Z,13.37
2019-04-07T15:52:51.408Z,12.50
2019-04-07T15:55:26.354Z,13.00
2019-04-07T15:57:57.343Z,15.23
2019-04-07T16:00:27.176Z,13.00
2019-04-07T16:02:58.965Z,13.53
2019-04-07T16:05:30.315Z,15.37
2019-04-07T16:08:02.251Z,13.67
2019-04-07T16:10:33.753Z,11.50
2019-04-07T16:13:04.799Z,12.00
2019-04-07T16:15:38.457Z,12.73
2019-04-07T16:18:09.059Z,11.50
2019-04-07T16:20:40.688Z,12.30
2019-04-07T16:23:17.444Z,11.00
2019-04-07T16:25:46.403Z,11.40
2019-04-07T16:28:16.865Z,12.80
2019-04-07T16:30:50.151Z,12.40
2019-04-07T16:33:20.511Z,16.03
2019-04-07T16:35:54.962Z,14.30
2019-04-07T16:38:24.232Z,10.57
2019-04-07T16:40:55.919Z,9.70
2019-04-07T16:43:28.672Z,11.03
2019-04-07T16:45:59.645Z,13.33
2019-04-07T16:48:30.477Z,10.60
2019-04-07T16:51:03.173Z,11.30
2019-04-07T16:53:36.496Z,13.43
2019-04-07T16:56:05.717Z,14.00
2019-04-07T16:58:38.516Z,10.37
2019-04-07T17:01:08.245Z,10.33
2019-04-07T17:03:39.641Z,12.00
2019-04-07T17:06:12.409Z,10.60
2019-04-07T17:08:43.407Z,13.20
2019-04-07T17:11:14.848Z,9.93
2019-04-07T17:13:46.070Z,9.70
2019-04-07T17:16:22.135Z,9.60
2019-04-07T17:18:50.263Z,10.97
2019-04-07T17:21:22.361Z,10.23
2019-04-07T17:23:55.358Z,11.63
2019-04-07T17:26:26.423Z,9.57
2019-04-07T17:28:58.240Z,10.50
2019-04-07T17:31:31.016Z,9.63
2019-04-07T17:34:03.944Z,9.63
2019-04-07T17:36:34.331Z,10.87
2019-04-07T17:39:26.380Z,9.13
2019-04-07T17:41:58.062Z,9.53
2019-04-07T17:44:56.625Z,9.90
2019-04-07T17:47:37.080Z,8.70
2019-04-07T17:50:37.188Z,11.00
2019-04-07T17:53:26.463Z,10.70
2019-04-07T17:56:08.720Z,11.37
2019-04-07T17:58:56.644Z,10.93
2019-04-07T18:01:46.341Z,9.97
2019-04-07T18:04:42.603Z,10.50
2019-04-07T18:07:25.411Z,10.87
2019-04-07T18:10:16.617Z,20.20
2019-04-07T18:13:05.151Z,11.20
2019-04-07T18:15:55.443Z,10.80
2019-04-07T18:18:44.327Z,11.43
2019-04-07T18:21:52.409Z,13.40
2019-04-07T18:24:32.641Z,13.20
2019-04-07T18:27:23.248Z,10.33
2019-04-07T18:30:03.219Z,11.83
2019-04-07T18:32:43.024Z,11.27
2019-04-07T18:35:19.494Z,15.90
2019-04-07T18:38:02.240Z,11.43
2019-04-07T18:40:58.343Z,14.93
2019-04-07T18:43:49.158Z,11.90
2019-04-07T18:46:29.056Z,11.93
2019-04-07T18:49:31.423Z,12.03
2019-04-07T18:52:22.755Z,11.50
2019-04-07T18:55:22.391Z,11.27
2019-04-07T18:58:18.339Z,11.93
2019-04-07T19:01:08.861Z,12.40
2019-04-07T19:03:53.282Z,12.47
2019-04-07T19:06:36.475Z,13.87
2019-04-07T19:09:16.647Z,13.20
2019-04-07T19:12:22.945Z,12.87
2019-04-07T19:15:08.201Z,13.40
2019-04-07T19:17:55.883Z,12.60
2019-04-07T19:20:45.708Z,16.13
2019-04-07T19:23:35.314Z,15.13
2019-04-07T19:26:18.480Z,13.70
2019-04-07T19:28:56.089Z,13.97
2019-04-07T19:31:48.103Z,12.80
2019-04-07T19:34:31.441Z,13.60
2019-04-07T19:37:19.332Z,12.57
2019-04-07T19:40:08.565Z,12.90
2019-04-07T19:42:58.125Z,12.73
2019-04-07T19:45:47.330Z,12.23
2019-04-07T19:48:42.782Z,12.10
2019-04-07T19:51:32.694Z,12.33
2019-04-07T19:54:23.566Z,11.80
2019-04-07T19:57:22.188Z,12.70
2019-04-07T20:00:13.098Z,18.50
2019-04-07T20:03:07.653Z,14.70
2019-04-07T20:05:52.918Z,12.50
2019-04-07T20:08:51.418Z,11.73
2019-04-07T20:11:46.747Z,12.40
2019-04-07T20:15:04.191Z,21.53
2019-04-07T20:17:59.347Z,14.07
2019-04-07T20:20:42.160Z,13.47
2019-04-07T20:23:28.495Z,13.23
2019-04-07T20:26:26.205Z,15.17
2019-04-07T20:29:19.321Z,13.03
2019-04-07T20:32:07.150Z,13.97
2019-04-07T20:34:53.472Z,10.90
2019-04-07T20:37:43.150Z,13.60
2019-04-07T20:40:37.049Z,11.43
2019-04-07T20:43:25.427Z,13.33
2019-04-07T20:46:10.902Z,11.30
2019-04-07T20:49:09.837Z,11.53
2019-04-07T20:52:08.478Z,11.47
2019-04-07T20:55:06.853Z,11.60
2019-04-07T20:58:15.319Z,13.03
2019-04-07T21:01:00.087Z,13.90
2019-04-07T21:03:54.324Z,12.17
2019-04-07T21:06:52.772Z,13.40
2019-04-07T21:09:35.535Z,12.10
2019-04-07T21:12:23.968Z,12.67
2019-04-07T21:15:21.059Z,11.03
2019-04-07T21:18:02.490Z,10.27
2019-04-07T21:20:40.734Z,12.80
2019-04-07T21:23:37.386Z,11.40
2019-04-07T21:26:27.770Z,10.83
2019-04-07T21:29:11.173Z,10.73
2019-04-07T21:31:49.177Z,10.73
2019-04-07T21:34:31.114Z,13.03
2019-04-07T21:37:31.060Z,9.23
2019-04-07T21:40:19.803Z,9.87
2019-04-07T21:43:15.342Z,10.70
2019-04-07T21:46:01.066Z,11.50
2019-04-07T21:49:05.871Z,10.13
2019-04-07T21:51:47.419Z,11.20
2019-04-07T21:54:30.702Z,11.33
2019-04-07T21:57:21.246Z,12.93
2019-04-07T22:00:18.784Z,9.87
2019-04-07T22:03:13.429Z,9.40
2019-04-07T22:06:11.996Z,13.43
2019-04-07T22:08:56.449Z,10.43
2019-04-07T22:11:30.051Z,9.80
2019-04-07T22:14:00.925Z,9.13
2019-04-07T22:16:32.825Z,9.93
2019-04-07T22:19:09.362Z,10.67
2019-04-07T22:21:38.200Z,8.20
2019-04-07T22:24:08.952Z,10.37
2019-04-07T22:26:40.536Z,9.30
2019-04-07T22:29:11.893Z,11.40
2019-04-07T22:31:49.349Z,9.60
2019-04-07T22:34:20.708Z,9.90
2019-04-07T22:36:52.453Z,10.27
2019-04-07T22:39:27.494Z,11.17
2019-04-07T22:41:56.984Z,10.80
2019-04-07T22:44:27.976Z,11.70
2019-04-07T22:46:58.655Z,11.97
2019-04-07T22:49:31.911Z,10.00
2019-04-07T22:52:01.696Z,11.33
2019-04-07T22:54:32.819Z,10.60
2019-04-07T22:57:03.627Z,10.07
2019-04-07T22:59:34.276Z,9.37
2019-04-07T23:02:05.327Z,9.33
2019-04-07T23:04:36.365Z,8.67
2019-04-07T23:07:06.986Z,9.30
2019-04-07T23:09:37.712Z,10.10
2019-04-07T23:12:08.484Z,10.50
2019-04-07T23:14:38.908Z,10.60
2019-04-07T23:17:09.944Z,12.87
2019-04-07T23:19:41.936Z,11.50
2019-04-07T23:22:12.512Z,10.70
2019-04-07T23:24:43.359Z,9.70
2019-04-07T23:27:14.552Z,8.90
2019-04-07T23:29:45.038Z,10.23
2019-04-07T23:32:15.848Z,9.47
2019-04-07T23:34:46.598Z,8.97
2019-04-07T23:37:17.203Z,8.07
2019-04-07T23:39:48.042Z,9.43
2019-04-07T23:42:18.523Z,7.80
2019-04-07T23:44:49.890Z,8.40
2019-04-07T23:47:21.549Z,8.10
2019-04-07T23:49:52.291Z,7.63
2019-04-07T23:52:23.449Z,7.93
2019-04-07T23:54:54.540Z,7.87
2019-04-07T23:57:26.099Z,7.40
2019-04-07T23:59:58.276Z,7.63
